Sarajevo International Airport Sarajevo BA
ICAO: LQSA
IATA: SJJ
Category: Large
Scheduled Services: Yes

Elevation: 1708 ft
TransAlt. 9500 ft.

Airport Communications:
APP:136.45
GCA:119.4
GND:121.9
TWR:118.25

LQSA Zoom In..

If you have problems with the map follow the link
https://www.worldairports.se/pages/airport.php?
ICAO=LQSA

Runways:

(A) RW 12 length 8530 ft width 148 ft
ILS 110.70 / hdg 115

(B) RW 30 length 8530 ft width 148 ft
---- / hdg 295

Location; LQSA
Day. 21 / Time. 08.30 Zulu
* QNH: 1024
* Temperature: -00° c. -32°f.
* Wind from: VRB° Speed 01 kn.
Dewpoint: -02° c.
Visibility: 10 km or more,
No clouds below 1,500 m.
No cumulonimbus, and no significant weather
fenomena in the aerodrome or its vicinity.
No significant changes expected in the near future.

LQSA 210830Z VRB01KT CAVOK M00/M02 Q1024 NOSIG


Wind From VRB°
Speed 01 kn.

 
 
jpsmedia worldairports.se 2020   terms of use